sensor_id;sensor_type;location;lat;lon;timestamp;P1;durP1;ratioP1;P2;durP2;ratioP2
9675;SDS011;4876;42.656;23.292;2023-07-31T00:01:07;4.27;;;3.87;;
9675;SDS011;4876;42.656;23.292;2023-07-31T00:03:34;5.97;;;3.60;;
9675;SDS011;4876;42.656;23.292;2023-07-31T00:06:01;4.80;;;3.97;;
9675;SDS011;4876;42.656;23.292;2023-07-31T00:08:27;4.40;;;4.00;;
9675;SDS011;4876;42.656;23.292;2023-07-31T00:10:55;4.40;;;4.00;;
9675;SDS011;4876;42.656;23.292;2023-07-31T00:13:22;7.90;;;3.77;;
9675;SDS011;4876;42.656;23.292;2023-07-31T00:15:49;5.33;;;3.90;;
9675;SDS011;4876;42.656;23.292;2023-07-31T00:18:16;4.23;;;3.83;;
9675;SDS011;4876;42.656;23.292;2023-07-31T00:20:43;5.13;;;4.30;;
9675;SDS011;4876;42.656;23.292;2023-07-31T00:23:08;4.43;;;4.00;;
9675;SDS011;4876;42.656;23.292;2023-07-31T00:25:35;6.00;;;4.77;;
9675;SDS011;4876;42.656;23.292;2023-07-31T00:28:03;5.03;;;4.40;;
9675;SDS011;4876;42.656;23.292;2023-07-31T00:30:30;6.07;;;4.77;;
9675;SDS011;4876;42.656;23.292;2023-07-31T00:32:57;5.87;;;4.90;;
9675;SDS011;4876;42.656;23.292;2023-07-31T00:35:24;4.70;;;4.30;;
9675;SDS011;4876;42.656;23.292;2023-07-31T00:37:51;5.50;;;5.00;;
9675;SDS011;4876;42.656;23.292;2023-07-31T00:40:17;5.53;;;5.03;;
9675;SDS011;4876;42.656;23.292;2023-07-31T00:42:44;7.47;;;5.20;;
9675;SDS011;4876;42.656;23.292;2023-07-31T00:45:12;5.80;;;5.30;;
9675;SDS011;4876;42.656;23.292;2023-07-31T00:47:39;7.47;;;5.47;;
9675;SDS011;4876;42.656;23.292;2023-07-31T00:50:06;6.40;;;5.90;;
9675;SDS011;4876;42.656;23.292;2023-07-31T00:52:34;6.70;;;6.10;;
9675;SDS011;4876;42.656;23.292;2023-07-31T00:55:02;7.20;;;6.50;;
9675;SDS011;4876;42.656;23.292;2023-07-31T00:57:30;8.27;;;7.57;;
9675;SDS011;4876;42.656;23.292;2023-07-31T00:59:58;8.63;;;7.70;;
9675;SDS011;4876;42.656;23.292;2023-07-31T01:02:26;9.23;;;8.37;;
9675;SDS011;4876;42.656;23.292;2023-07-31T01:04:53;9.40;;;8.50;;
9675;SDS011;4876;42.656;23.292;2023-07-31T01:07:22;9.67;;;8.80;;
9675;SDS011;4876;42.656;23.292;2023-07-31T01:09:57;10.60;;;9.70;;
9675;SDS011;4876;42.656;23.292;2023-07-31T01:12:29;11.77;;;10.67;;
9675;SDS011;4876;42.656;23.292;2023-07-31T01:15:04;14.23;;;13.03;;
9675;SDS011;4876;42.656;23.292;2023-07-31T01:17:37;16.93;;;14.27;;
9675;SDS011;4876;42.656;23.292;2023-07-31T01:20:05;16.23;;;14.83;;
9675;SDS011;4876;42.656;23.292;2023-07-31T01:22:45;16.13;;;14.63;;
9675;SDS011;4876;42.656;23.292;2023-07-31T01:25:26;16.53;;;15.03;;
9675;SDS011;4876;42.656;23.292;2023-07-31T01:28:13;17.83;;;16.13;;
9675;SDS011;4876;42.656;23.292;2023-07-31T01:30:44;17.73;;;16.17;;
9675;SDS011;4876;42.656;23.292;2023-07-31T01:33:15;19.90;;;18.10;;
9675;SDS011;4876;42.656;23.292;2023-07-31T01:35:43;19.93;;;18.03;;
9675;SDS011;4876;42.656;23.292;2023-07-31T01:38:12;22.73;;;19.50;;
9675;SDS011;4876;42.656;23.292;2023-07-31T01:40:41;24.20;;;21.90;;
9675;SDS011;4876;42.656;23.292;2023-07-31T01:43:09;24.03;;;21.50;;
9675;SDS011;4876;42.656;23.292;2023-07-31T01:45:36;23.20;;;20.70;;
9675;SDS011;4876;42.656;23.292;2023-07-31T01:48:03;23.93;;;21.63;;
9675;SDS011;4876;42.656;23.292;2023-07-31T01:50:30;24.87;;;22.47;;
9675;SDS011;4876;42.656;23.292;2023-07-31T01:52:57;26.67;;;23.87;;
9675;SDS011;4876;42.656;23.292;2023-07-31T01:55:24;26.60;;;23.80;;
9675;SDS011;4876;42.656;23.292;2023-07-31T01:57:51;26.10;;;23.67;;
9675;SDS011;4876;42.656;23.292;2023-07-31T02:00:19;27.27;;;24.57;;
9675;SDS011;4876;42.656;23.292;2023-07-31T02:02:46;25.87;;;23.43;;
9675;SDS011;4876;42.656;23.292;2023-07-31T02:05:13;25.47;;;22.93;;
9675;SDS011;4876;42.656;23.292;2023-07-31T02:07:39;25.33;;;22.83;;
9675;SDS011;4876;42.656;23.292;2023-07-31T02:10:07;26.07;;;23.67;;
9675;SDS011;4876;42.656;23.292;2023-07-31T02:12:34;25.73;;;23.03;;
9675;SDS011;4876;42.656;23.292;2023-07-31T02:15:01;27.53;;;24.63;;
9675;SDS011;4876;42.656;23.292;2023-07-31T02:17:29;27.87;;;25.17;;
9675;SDS011;4876;42.656;23.292;2023-07-31T02:19:56;27.67;;;25.00;;
9675;SDS011;4876;42.656;23.292;2023-07-31T02:22:22;26.07;;;23.63;;
9675;SDS011;4876;42.656;23.292;2023-07-31T02:24:49;25.83;;;23.43;;
9675;SDS011;4876;42.656;23.292;2023-07-31T02:27:16;25.80;;;23.40;;
9675;SDS011;4876;42.656;23.292;2023-07-31T02:29:43;25.43;;;22.97;;
9675;SDS011;4876;42.656;23.292;2023-07-31T02:32:10;27.00;;;24.37;;
9675;SDS011;4876;42.656;23.292;2023-07-31T02:34:38;23.40;;;20.90;;
9675;SDS011;4876;42.656;23.292;2023-07-31T02:37:05;26.60;;;24.00;;
9675;SDS011;4876;42.656;23.292;2023-07-31T02:39:32;24.10;;;21.83;;
9675;SDS011;4876;42.656;23.292;2023-07-31T02:41:59;24.77;;;22.43;;
9675;SDS011;4876;42.656;23.292;2023-07-31T02:44:26;24.43;;;22.00;;
9675;SDS011;4876;42.656;23.292;2023-07-31T02:46:53;24.07;;;21.77;;
9675;SDS011;4876;42.656;23.292;2023-07-31T02:49:20;24.90;;;22.57;;
9675;SDS011;4876;42.656;23.292;2023-07-31T02:51:48;25.13;;;21.97;;
9675;SDS011;4876;42.656;23.292;2023-07-31T02:54:15;24.47;;;22.13;;
9675;SDS011;4876;42.656;23.292;2023-07-31T02:56:42;23.80;;;21.53;;
9675;SDS011;4876;42.656;23.292;2023-07-31T02:59:09;25.03;;;22.73;;
9675;SDS011;4876;42.656;23.292;2023-07-31T03:01:35;26.40;;;23.90;;
9675;SDS011;4876;42.656;23.292;2023-07-31T03:04:02;25.47;;;22.97;;
9675;SDS011;4876;42.656;23.292;2023-07-31T03:06:29;25.90;;;23.17;;
9675;SDS011;4876;42.656;23.292;2023-07-31T03:08:57;24.80;;;22.50;;
9675;SDS011;4876;42.656;23.292;2023-07-31T03:11:24;25.67;;;23.07;;
9675;SDS011;4876;42.656;23.292;2023-07-31T03:13:51;24.87;;;22.37;;
9675;SDS011;4876;42.656;23.292;2023-07-31T03:16:19;26.23;;;23.83;;
9675;SDS011;4876;42.656;23.292;2023-07-31T03:18:45;24.20;;;21.90;;
9675;SDS011;4876;42.656;23.292;2023-07-31T03:21:12;25.20;;;22.90;;
9675;SDS011;4876;42.656;23.292;2023-07-31T03:23:39;24.70;;;22.30;;
9675;SDS011;4876;42.656;23.292;2023-07-31T03:26:07;26.03;;;23.53;;
9675;SDS011;4876;42.656;23.292;2023-07-31T03:28:34;26.87;;;24.30;;
9675;SDS011;4876;42.656;23.292;2023-07-31T03:31:01;25.27;;;22.83;;
9675;SDS011;4876;42.656;23.292;2023-07-31T03:33:28;25.53;;;23.03;;
9675;SDS011;4876;42.656;23.292;2023-07-31T03:35:55;24.87;;;22.50;;
9675;SDS011;4876;42.656;23.292;2023-07-31T03:38:22;25.53;;;23.03;;
9675;SDS011;4876;42.656;23.292;2023-07-31T03:40:49;26.33;;;23.60;;
9675;SDS011;4876;42.656;23.292;2023-07-31T03:43:17;27.40;;;23.60;;
9675;SDS011;4876;42.656;23.292;2023-07-31T03:45:43;25.57;;;22.97;;
9675;SDS011;4876;42.656;23.292;2023-07-31T03:48:10;24.63;;;22.13;;
9675;SDS011;4876;42.656;23.292;2023-07-31T03:50:37;27.97;;;25.03;;
9675;SDS011;4876;42.656;23.292;2023-07-31T03:53:04;25.37;;;22.77;;
9675;SDS011;4876;42.656;23.292;2023-07-31T03:55:31;25.60;;;23.17;;
9675;SDS011;4876;42.656;23.292;2023-07-31T03:57:58;29.00;;;25.97;;
9675;SDS011;4876;42.656;23.292;2023-07-31T04:00:27;25.80;;;23.20;;
9675;SDS011;4876;42.656;23.292;2023-07-31T04:02:53;28.57;;;25.63;;
9675;SDS011;4876;42.656;23.292;2023-07-31T04:05:20;33.97;;;25.27;;
9675;SDS011;4876;42.656;23.292;2023-07-31T04:07:47;26.87;;;24.23;;
9675;SDS011;4876;42.656;23.292;2023-07-31T04:10:14;26.30;;;23.73;;
9675;SDS011;4876;42.656;23.292;2023-07-31T04:12:40;27.80;;;24.93;;
9675;SDS011;4876;42.656;23.292;2023-07-31T04:15:07;27.53;;;24.63;;
9675;SDS011;4876;42.656;23.292;2023-07-31T04:17:36;28.23;;;25.33;;
9675;SDS011;4876;42.656;23.292;2023-07-31T04:20:03;26.23;;;23.43;;
9675;SDS011;4876;42.656;23.292;2023-07-31T04:22:31;25.87;;;23.37;;
9675;SDS011;4876;42.656;23.292;2023-07-31T04:24:58;26.13;;;23.63;;
9675;SDS011;4876;42.656;23.292;2023-07-31T04:27:24;25.43;;;22.97;;
9675;SDS011;4876;42.656;23.292;2023-07-31T04:29:51;25.77;;;23.23;;
9675;SDS011;4876;42.656;23.292;2023-07-31T04:32:18;26.00;;;23.33;;
9675;SDS011;4876;42.656;23.292;2023-07-31T04:34:47;25.50;;;22.90;;
9675;SDS011;4876;42.656;23.292;2023-07-31T04:37:14;26.13;;;23.63;;
9675;SDS011;4876;42.656;23.292;2023-07-31T04:39:41;25.83;;;23.17;;
9675;SDS011;4876;42.656;23.292;2023-07-31T04:42:07;24.17;;;21.77;;
9675;SDS011;4876;42.656;23.292;2023-07-31T04:44:34;21.23;;;19.03;;
9675;SDS011;4876;42.656;23.292;2023-07-31T04:47:01;23.07;;;20.77;;
9675;SDS011;4876;42.656;23.292;2023-07-31T04:49:28;23.40;;;21.10;;
9675;SDS011;4876;42.656;23.292;2023-07-31T04:51:56;21.10;;;19.10;;
9675;SDS011;4876;42.656;23.292;2023-07-31T04:54:23;23.40;;;21.10;;
9675;SDS011;4876;42.656;23.292;2023-07-31T04:56:50;23.37;;;21.17;;
9675;SDS011;4876;42.656;23.292;2023-07-31T04:59:17;22.73;;;20.43;;
9675;SDS011;4876;42.656;23.292;2023-07-31T05:01:44;22.20;;;19.90;;
9675;SDS011;4876;42.656;23.292;2023-07-31T05:04:12;20.53;;;18.60;;
9675;SDS011;4876;42.656;23.292;2023-07-31T05:06:39;22.33;;;20.10;;
9675;SDS011;4876;42.656;23.292;2023-07-31T05:09:07;18.40;;;16.50;;
9675;SDS011;4876;42.656;23.292;2023-07-31T05:11:35;21.07;;;18.93;;
9675;SDS011;4876;42.656;23.292;2023-07-31T05:14:02;19.83;;;18.03;;
9675;SDS011;4876;42.656;23.292;2023-07-31T05:16:29;17.47;;;15.83;;
9675;SDS011;4876;42.656;23.292;2023-07-31T05:18:55;17.87;;;16.20;;
9675;SDS011;4876;42.656;23.292;2023-07-31T05:21:24;17.13;;;15.33;;
9675;SDS011;4876;42.656;23.292;2023-07-31T05:23:50;17.53;;;15.83;;
9675;SDS011;4876;42.656;23.292;2023-07-31T05:26:19;17.13;;;15.43;;
9675;SDS011;4876;42.656;23.292;2023-07-31T05:28:45;17.63;;;15.90;;
9675;SDS011;4876;42.656;23.292;2023-07-31T05:31:12;17.23;;;15.67;;
9675;SDS011;4876;42.656;23.292;2023-07-31T05:33:39;17.57;;;15.70;;
9675;SDS011;4876;42.656;23.292;2023-07-31T05:36:06;17.43;;;14.83;;
9675;SDS011;4876;42.656;23.292;2023-07-31T05:38:32;17.13;;;13.87;;
9675;SDS011;4876;42.656;23.292;2023-07-31T05:40:59;14.87;;;13.37;;
9675;SDS011;4876;42.656;23.292;2023-07-31T05:43:27;13.33;;;12.03;;
9675;SDS011;4876;42.656;23.292;2023-07-31T05:45:54;11.33;;;10.23;;
9675;SDS011;4876;42.656;23.292;2023-07-31T05:48:21;10.80;;;9.70;;
9675;SDS011;4876;42.656;23.292;2023-07-31T05:50:48;10.67;;;8.80;;
9675;SDS011;4876;42.656;23.292;2023-07-31T05:53:15;9.70;;;8.90;;
9675;SDS011;4876;42.656;23.292;2023-07-31T05:55:41;10.60;;;9.60;;
9675;SDS011;4876;42.656;23.292;2023-07-31T05:58:08;11.50;;;10.40;;
9675;SDS011;4876;42.656;23.292;2023-07-31T06:00:36;10.27;;;9.20;;
9675;SDS011;4876;42.656;23.292;2023-07-31T06:03:03;10.60;;;9.40;;
9675;SDS011;4876;42.656;23.292;2023-07-31T06:05:30;9.00;;;8.13;;
9675;SDS011;4876;42.656;23.292;2023-07-31T06:07:57;8.70;;;7.90;;
9675;SDS011;4876;42.656;23.292;2023-07-31T06:10:24;8.07;;;7.27;;
9675;SDS011;4876;42.656;23.292;2023-07-31T06:12:51;7.30;;;6.53;;
9675;SDS011;4876;42.656;23.292;2023-07-31T06:15:18;6.67;;;6.07;;
9675;SDS011;4876;42.656;23.292;2023-07-31T06:17:46;5.50;;;5.00;;
9675;SDS011;4876;42.656;23.292;2023-07-31T06:20:13;5.60;;;5.10;;
9675;SDS011;4876;42.656;23.292;2023-07-31T06:22:40;7.17;;;5.63;;
9675;SDS011;4876;42.656;23.292;2023-07-31T06:25:07;5.03;;;4.53;;
9675;SDS011;4876;42.656;23.292;2023-07-31T06:27:34;5.23;;;4.67;;
9675;SDS011;4876;42.656;23.292;2023-07-31T06:30:01;4.20;;;3.90;;
9675;SDS011;4876;42.656;23.292;2023-07-31T06:32:28;9.83;;;5.00;;
9675;SDS011;4876;42.656;23.292;2023-07-31T06:34:56;6.27;;;5.37;;
9675;SDS011;4876;42.656;23.292;2023-07-31T06:37:23;5.27;;;4.80;;
9675;SDS011;4876;42.656;23.292;2023-07-31T06:39:50;8.43;;;4.80;;
9675;SDS011;4876;42.656;23.292;2023-07-31T06:42:16;5.57;;;5.03;;
9675;SDS011;4876;42.656;23.292;2023-07-31T06:44:43;5.40;;;4.50;;
9675;SDS011;4876;42.656;23.292;2023-07-31T06:47:10;11.20;;;4.47;;
9675;SDS011;4876;42.656;23.292;2023-07-31T06:49:37;6.67;;;4.27;;
9675;SDS011;4876;42.656;23.292;2023-07-31T06:52:05;9.00;;;4.77;;
9675;SDS011;4876;42.656;23.292;2023-07-31T06:54:32;6.07;;;4.90;;
9675;SDS011;4876;42.656;23.292;2023-07-31T06:56:59;5.23;;;4.73;;
9675;SDS011;4876;42.656;23.292;2023-07-31T06:59:26;4.87;;;4.47;;
9675;SDS011;4876;42.656;23.292;2023-07-31T07:01:53;5.80;;;5.30;;
9675;SDS011;4876;42.656;23.292;2023-07-31T07:04:20;4.37;;;3.97;;
9675;SDS011;4876;42.656;23.292;2023-07-31T07:06:46;4.10;;;3.70;;
9675;SDS011;4876;42.656;23.292;2023-07-31T07:09:15;6.97;;;4.20;;
9675;SDS011;4876;42.656;23.292;2023-07-31T07:11:42;4.17;;;3.50;;
9675;SDS011;4876;42.656;23.292;2023-07-31T07:14:09;5.07;;;3.47;;
9675;SDS011;4876;42.656;23.292;2023-07-31T07:16:36;6.73;;;3.90;;
9675;SDS011;4876;42.656;23.292;2023-07-31T07:19:02;3.90;;;3.60;;
9675;SDS011;4876;42.656;23.292;2023-07-31T07:21:29;3.90;;;3.40;;
9675;SDS011;4876;42.656;23.292;2023-07-31T07:23:56;4.50;;;3.00;;
9675;SDS011;4876;42.656;23.292;2023-07-31T07:26:24;3.60;;;3.17;;
9675;SDS011;4876;42.656;23.292;2023-07-31T07:28:51;4.80;;;3.27;;
9675;SDS011;4876;42.656;23.292;2023-07-31T07:31:18;5.63;;;3.37;;
9675;SDS011;4876;42.656;23.292;2023-07-31T07:33:44;4.60;;;3.20;;
9675;SDS011;4876;42.656;23.292;2023-07-31T07:36:11;3.17;;;2.87;;
9675;SDS011;4876;42.656;23.292;2023-07-31T07:38:38;3.23;;;2.97;;
9675;SDS011;4876;42.656;23.292;2023-07-31T07:41:06;3.17;;;2.93;;
9675;SDS011;4876;42.656;23.292;2023-07-31T07:43:34;3.77;;;3.10;;
9675;SDS011;4876;42.656;23.292;2023-07-31T07:46:01;3.83;;;3.20;;
9675;SDS011;4876;42.656;23.292;2023-07-31T07:48:27;6.50;;;3.40;;
9675;SDS011;4876;42.656;23.292;2023-07-31T07:50:54;4.80;;;3.20;;
9675;SDS011;4876;42.656;23.292;2023-07-31T07:53:21;5.83;;;3.37;;
9675;SDS011;4876;42.656;23.292;2023-07-31T07:55:48;3.57;;;3.20;;
9675;SDS011;4876;42.656;23.292;2023-07-31T07:58:14;3.90;;;2.93;;
9675;SDS011;4876;42.656;23.292;2023-07-31T08:00:43;3.30;;;3.03;;
9675;SDS011;4876;42.656;23.292;2023-07-31T08:03:15;3.77;;;3.10;;
9675;SDS011;4876;42.656;23.292;2023-07-31T08:05:42;3.67;;;3.37;;
9675;SDS011;4876;42.656;23.292;2023-07-31T08:08:08;6.73;;;2.93;;
9675;SDS011;4876;42.656;23.292;2023-07-31T08:10:40;3.50;;;2.77;;
9675;SDS011;4876;42.656;23.292;2023-07-31T08:13:07;5.70;;;4.00;;
9675;SDS011;4876;42.656;23.292;2023-07-31T08:15:33;4.10;;;3.27;;
9675;SDS011;4876;42.656;23.292;2023-07-31T08:18:02;5.73;;;3.30;;
9675;SDS011;4876;42.656;23.292;2023-07-31T08:20:29;3.50;;;3.20;;
9675;SDS011;4876;42.656;23.292;2023-07-31T08:22:56;3.87;;;2.87;;
9675;SDS011;4876;42.656;23.292;2023-07-31T08:25:23;3.03;;;2.83;;
9675;SDS011;4876;42.656;23.292;2023-07-31T08:27:50;4.50;;;3.10;;
9675;SDS011;4876;42.656;23.292;2023-07-31T08:30:17;5.03;;;2.97;;
9675;SDS011;4876;42.656;23.292;2023-07-31T08:32:44;5.67;;;3.03;;
9675;SDS011;4876;42.656;23.292;2023-07-31T08:35:12;3.60;;;3.30;;
9675;SDS011;4876;42.656;23.292;2023-07-31T08:37:39;3.07;;;2.83;;
9675;SDS011;4876;42.656;23.292;2023-07-31T08:40:06;5.63;;;3.40;;
9675;SDS011;4876;42.656;23.292;2023-07-31T08:42:34;3.30;;;3.00;;
9675;SDS011;4876;42.656;23.292;2023-07-31T08:45:09;4.33;;;2.93;;
9675;SDS011;4876;42.656;23.292;2023-07-31T08:47:40;2.90;;;2.70;;
9675;SDS011;4876;42.656;23.292;2023-07-31T08:50:09;6.30;;;3.27;;
9675;SDS011;4876;42.656;23.292;2023-07-31T08:52:38;4.23;;;3.53;;
9675;SDS011;4876;42.656;23.292;2023-07-31T08:55:05;2.60;;;2.40;;
9675;SDS011;4876;42.656;23.292;2023-07-31T08:57:34;3.80;;;3.40;;
9675;SDS011;4876;42.656;23.292;2023-07-31T09:00:02;3.80;;;3.03;;
9675;SDS011;4876;42.656;23.292;2023-07-31T09:02:31;6.67;;;3.37;;
9675;SDS011;4876;42.656;23.292;2023-07-31T09:05:04;3.57;;;3.27;;
9675;SDS011;4876;42.656;23.292;2023-07-31T09:07:32;3.70;;;3.10;;
9675;SDS011;4876;42.656;23.292;2023-07-31T09:10:02;3.50;;;2.87;;
9675;SDS011;4876;42.656;23.292;2023-07-31T09:12:30;3.40;;;3.10;;
9675;SDS011;4876;42.656;23.292;2023-07-31T09:14:58;3.97;;;3.00;;
9675;SDS011;4876;42.656;23.292;2023-07-31T09:17:31;5.97;;;3.20;;
9675;SDS011;4876;42.656;23.292;2023-07-31T09:20:04;3.42;;;3.13;;
9675;SDS011;4876;42.656;23.292;2023-07-31T09:22:39;3.37;;;3.03;;
9675;SDS011;4876;42.656;23.292;2023-07-31T09:25:15;4.30;;;3.10;;
9675;SDS011;4876;42.656;23.292;2023-07-31T09:27:45;3.92;;;3.22;;
9675;SDS011;4876;42.656;23.292;2023-07-31T09:30:12;3.55;;;3.25;;
9675;SDS011;4876;42.656;23.292;2023-07-31T09:32:39;4.70;;;3.42;;
9675;SDS011;4876;42.656;23.292;2023-07-31T09:35:12;4.13;;;3.30;;
9675;SDS011;4876;42.656;23.292;2023-07-31T09:37:47;3.95;;;3.50;;
9675;SDS011;4876;42.656;23.292;2023-07-31T09:40:25;7.07;;;3.17;;
9675;SDS011;4876;42.656;23.292;2023-07-31T09:42:53;4.50;;;3.50;;
9675;SDS011;4876;42.656;23.292;2023-07-31T09:45:22;15.02;;;3.65;;
9675;SDS011;4876;42.656;23.292;2023-07-31T09:47:49;3.67;;;3.38;;
9675;SDS011;4876;42.656;23.292;2023-07-31T09:50:16;5.50;;;4.03;;
9675;SDS011;4876;42.656;23.292;2023-07-31T09:52:43;3.67;;;3.13;;
9675;SDS011;4876;42.656;23.292;2023-07-31T09:55:10;5.88;;;4.15;;
9675;SDS011;4876;42.656;23.292;2023-07-31T09:57:39;3.90;;;3.13;;
9675;SDS011;4876;42.656;23.292;2023-07-31T10:00:08;3.55;;;3.00;;
9675;SDS011;4876;42.656;23.292;2023-07-31T10:02:36;6.15;;;2.63;;
9675;SDS011;4876;42.656;23.292;2023-07-31T10:05:04;4.20;;;3.50;;
9675;SDS011;4876;42.656;23.292;2023-07-31T10:07:33;4.35;;;3.33;;
9675;SDS011;4876;42.656;23.292;2023-07-31T10:10:04;4.68;;;2.90;;
9675;SDS011;4876;42.656;23.292;2023-07-31T10:12:34;3.22;;;2.92;;
9675;SDS011;4876;42.656;23.292;2023-07-31T10:15:04;3.33;;;2.65;;
9675;SDS011;4876;42.656;23.292;2023-07-31T10:17:32;7.15;;;3.20;;
9675;SDS011;4876;42.656;23.292;2023-07-31T10:19:59;2.83;;;2.60;;
9675;SDS011;4876;42.656;23.292;2023-07-31T10:22:29;3.70;;;2.30;;
9675;SDS011;4876;42.656;23.292;2023-07-31T10:25:14;3.67;;;2.70;;
9675;SDS011;4876;42.656;23.292;2023-07-31T10:27:42;3.42;;;2.67;;
9675;SDS011;4876;42.656;23.292;2023-07-31T10:30:11;7.50;;;2.50;;
9675;SDS011;4876;42.656;23.292;2023-07-31T10:32:41;5.78;;;2.83;;
9675;SDS011;4876;42.656;23.292;2023-07-31T10:35:09;5.53;;;2.40;;
9675;SDS011;4876;42.656;23.292;2023-07-31T10:37:38;4.55;;;2.60;;
9675;SDS011;4876;42.656;23.292;2023-07-31T10:40:09;2.28;;;2.08;;
9675;SDS011;4876;42.656;23.292;2023-07-31T10:42:47;4.25;;;2.60;;
9675;SDS011;4876;42.656;23.292;2023-07-31T10:45:23;2.58;;;2.33;;
9675;SDS011;4876;42.656;23.292;2023-07-31T10:47:57;4.80;;;2.40;;
9675;SDS011;4876;42.656;23.292;2023-07-31T10:50:27;2.53;;;2.33;;
9675;SDS011;4876;42.656;23.292;2023-07-31T10:52:55;2.95;;;2.60;;
9675;SDS011;4876;42.656;23.292;2023-07-31T10:55:27;2.53;;;2.33;;
9675;SDS011;4876;42.656;23.292;2023-07-31T10:57:56;2.58;;;2.03;;
9675;SDS011;4876;42.656;23.292;2023-07-31T11:00:27;6.80;;;2.00;;
9675;SDS011;4876;42.656;23.292;2023-07-31T11:03:01;2.58;;;2.20;;
9675;SDS011;4876;42.656;23.292;2023-07-31T11:05:49;2.30;;;2.10;;
9675;SDS011;4876;42.656;23.292;2023-07-31T11:08:19;3.65;;;2.40;;
9675;SDS011;4876;42.656;23.292;2023-07-31T11:10:47;4.10;;;2.35;;
9675;SDS011;4876;42.656;23.292;2023-07-31T11:13:16;2.20;;;1.98;;
9675;SDS011;4876;42.656;23.292;2023-07-31T11:15:44;2.35;;;2.15;;
9675;SDS011;4876;42.656;23.292;2023-07-31T11:18:11;2.30;;;2.10;;
9675;SDS011;4876;42.656;23.292;2023-07-31T11:20:42;2.15;;;1.95;;
9675;SDS011;4876;42.656;23.292;2023-07-31T11:23:09;2.38;;;2.15;;
9675;SDS011;4876;42.656;23.292;2023-07-31T11:25:37;2.60;;;2.40;;
9675;SDS011;4876;42.656;23.292;2023-07-31T11:28:07;3.83;;;2.00;;
9675;SDS011;4876;42.656;23.292;2023-07-31T11:30:36;2.40;;;2.20;;
9675;SDS011;4876;42.656;23.292;2023-07-31T11:33:05;2.70;;;2.30;;
9675;SDS011;4876;42.656;23.292;2023-07-31T11:35:33;2.28;;;2.00;;
9675;SDS011;4876;42.656;23.292;2023-07-31T11:38:02;3.67;;;2.50;;
9675;SDS011;4876;42.656;23.292;2023-07-31T11:40:29;3.00;;;2.17;;
9675;SDS011;4876;42.656;23.292;2023-07-31T11:42:56;4.88;;;2.70;;
9675;SDS011;4876;42.656;23.292;2023-07-31T11:45:24;3.15;;;2.40;;
9675;SDS011;4876;42.656;23.292;2023-07-31T11:47:53;5.10;;;3.20;;
9675;SDS011;4876;42.656;23.292;2023-07-31T11:50:22;8.10;;;3.33;;
9675;SDS011;4876;42.656;23.292;2023-07-31T11:52:52;4.40;;;3.10;;
9675;SDS011;4876;42.656;23.292;2023-07-31T11:55:22;4.07;;;3.15;;
9675;SDS011;4876;42.656;23.292;2023-07-31T11:57:49;3.78;;;3.10;;
9675;SDS011;4876;42.656;23.292;2023-07-31T12:00:17;4.90;;;4.00;;
9675;SDS011;4876;42.656;23.292;2023-07-31T12:02:44;3.38;;;3.10;;
9675;SDS011;4876;42.656;23.292;2023-07-31T12:05:12;5.50;;;2.88;;
9675;SDS011;4876;42.656;23.292;2023-07-31T12:07:44;5.07;;;3.45;;
9675;SDS011;4876;42.656;23.292;2023-07-31T12:10:21;4.22;;;3.83;;
9675;SDS011;4876;42.656;23.292;2023-07-31T12:12:56;4.60;;;3.53;;
9675;SDS011;4876;42.656;23.292;2023-07-31T12:15:33;3.92;;;3.20;;
9675;SDS011;4876;42.656;23.292;2023-07-31T12:18:04;3.10;;;2.90;;
9675;SDS011;4876;42.656;23.292;2023-07-31T12:20:33;8.52;;;5.75;;
9675;SDS011;4876;42.656;23.292;2023-07-31T12:23:02;5.95;;;5.45;;
9675;SDS011;4876;42.656;23.292;2023-07-31T12:25:29;6.43;;;5.82;;
9675;SDS011;4876;42.656;23.292;2023-07-31T12:27:57;5.60;;;5.10;;
9675;SDS011;4876;42.656;23.292;2023-07-31T12:30:27;5.95;;;5.38;;
9675;SDS011;4876;42.656;23.292;2023-07-31T12:32:55;6.70;;;5.97;;
9675;SDS011;4876;42.656;23.292;2023-07-31T12:35:22;5.95;;;5.35;;
9675;SDS011;4876;42.656;23.292;2023-07-31T12:37:48;6.95;;;5.97;;
9675;SDS011;4876;42.656;23.292;2023-07-31T12:40:16;5.35;;;4.95;;
9675;SDS011;4876;42.656;23.292;2023-07-31T12:42:44;5.35;;;4.95;;
9675;SDS011;4876;42.656;23.292;2023-07-31T12:45:10;7.53;;;5.13;;
9675;SDS011;4876;42.656;23.292;2023-07-31T12:47:37;9.60;;;5.20;;
9675;SDS011;4876;42.656;23.292;2023-07-31T12:50:04;8.10;;;5.78;;
9675;SDS011;4876;42.656;23.292;2023-07-31T12:52:32;5.70;;;5.20;;
9675;SDS011;4876;42.656;23.292;2023-07-31T12:54:59;6.43;;;5.53;;
9675;SDS011;4876;42.656;23.292;2023-07-31T12:57:27;6.57;;;5.88;;
9675;SDS011;4876;42.656;23.292;2023-07-31T12:59:54;5.90;;;5.43;;
9675;SDS011;4876;42.656;23.292;2023-07-31T13:02:21;7.07;;;5.13;;
9675;SDS011;4876;42.656;23.292;2023-07-31T13:04:48;5.22;;;4.80;;
9675;SDS011;4876;42.656;23.292;2023-07-31T13:07:16;9.15;;;5.60;;
9675;SDS011;4876;42.656;23.292;2023-07-31T13:09:43;7.05;;;6.03;;
9675;SDS011;4876;42.656;23.292;2023-07-31T13:12:09;7.43;;;6.03;;
9675;SDS011;4876;42.656;23.292;2023-07-31T13:14:38;7.22;;;5.75;;
9675;SDS011;4876;42.656;23.292;2023-07-31T13:17:05;11.15;;;5.65;;
9675;SDS011;4876;42.656;23.292;2023-07-31T13:19:31;5.57;;;5.13;;
9675;SDS011;4876;42.656;23.292;2023-07-31T13:21:58;6.30;;;5.70;;
9675;SDS011;4876;42.656;23.292;2023-07-31T13:24:25;5.97;;;5.40;;
9675;SDS011;4876;42.656;23.292;2023-07-31T13:26:52;5.10;;;4.53;;
9675;SDS011;4876;42.656;23.292;2023-07-31T13:29:19;8.30;;;5.40;;
9675;SDS011;4876;42.656;23.292;2023-07-31T13:31:48;5.75;;;5.10;;
9675;SDS011;4876;42.656;23.292;2023-07-31T13:34:15;6.47;;;4.88;;
9675;SDS011;4876;42.656;23.292;2023-07-31T13:36:42;4.50;;;4.10;;
9675;SDS011;4876;42.656;23.292;2023-07-31T13:39:08;5.55;;;4.50;;
9675;SDS011;4876;42.656;23.292;2023-07-31T13:41:35;7.57;;;4.63;;
9675;SDS011;4876;42.656;23.292;2023-07-31T13:44:02;5.90;;;4.90;;
9675;SDS011;4876;42.656;23.292;2023-07-31T13:46:29;4.60;;;4.30;;
9675;SDS011;4876;42.656;23.292;2023-07-31T13:48:58;6.53;;;4.75;;
9675;SDS011;4876;42.656;23.292;2023-07-31T13:51:26;5.40;;;4.90;;
9675;SDS011;4876;42.656;23.292;2023-07-31T13:53:53;9.43;;;4.93;;
9675;SDS011;4876;42.656;23.292;2023-07-31T13:56:20;4.80;;;4.40;;
9675;SDS011;4876;42.656;23.292;2023-07-31T13:58:47;4.35;;;3.95;;
9675;SDS011;4876;42.656;23.292;2023-07-31T14:01:14;5.65;;;4.30;;
9675;SDS011;4876;42.656;23.292;2023-07-31T14:03:41;5.35;;;4.55;;
9675;SDS011;4876;42.656;23.292;2023-07-31T14:06:09;5.50;;;5.00;;
9675;SDS011;4876;42.656;23.292;2023-07-31T14:08:36;5.75;;;4.53;;
9675;SDS011;4876;42.656;23.292;2023-07-31T14:11:02;4.82;;;4.30;;
9675;SDS011;4876;42.656;23.292;2023-07-31T14:13:29;4.38;;;3.97;;
9675;SDS011;4876;42.656;23.292;2023-07-31T14:15:56;8.60;;;4.57;;
9675;SDS011;4876;42.656;23.292;2023-07-31T14:18:23;7.97;;;4.55;;
9675;SDS011;4876;42.656;23.292;2023-07-31T14:20:50;6.03;;;4.18;;
9675;SDS011;4876;42.656;23.292;2023-07-31T14:23:18;4.97;;;4.57;;
9675;SDS011;4876;42.656;23.292;2023-07-31T14:25:45;9.10;;;4.47;;
9675;SDS011;4876;42.656;23.292;2023-07-31T14:28:12;4.70;;;4.30;;
9675;SDS011;4876;42.656;23.292;2023-07-31T14:30:38;5.25;;;3.90;;
9675;SDS011;4876;42.656;23.292;2023-07-31T14:33:05;10.18;;;4.10;;
9675;SDS011;4876;42.656;23.292;2023-07-31T14:35:32;4.30;;;3.90;;
9675;SDS011;4876;42.656;23.292;2023-07-31T14:38:00;5.15;;;3.88;;
9675;SDS011;4876;42.656;23.292;2023-07-31T14:40:28;3.75;;;3.42;;
9675;SDS011;4876;42.656;23.292;2023-07-31T14:42:55;5.97;;;3.40;;
9675;SDS011;4876;42.656;23.292;2023-07-31T14:45:22;5.57;;;4.05;;
9675;SDS011;4876;42.656;23.292;2023-07-31T14:47:49;4.05;;;3.67;;
9675;SDS011;4876;42.656;23.292;2023-07-31T14:50:15;4.05;;;3.67;;
9675;SDS011;4876;42.656;23.292;2023-07-31T14:52:42;4.40;;;3.63;;
9675;SDS011;4876;42.656;23.292;2023-07-31T14:55:09;4.60;;;4.13;;
9675;SDS011;4876;42.656;23.292;2023-07-31T14:57:37;4.28;;;3.88;;